AirNav   ProFlight Series 2 Aviation Headset
 
 770 users online  

1AR2 Taylor Airstrip
Des Arc, Arkansas, USA

GOING TO DES ARC?


FAA INFORMATION EFFECTIVE 08 OCTOBER 2020

Location

FAA Identifier: 1AR2
Lat/Long: 34-59-12.4200N 091-33-01.0800W
34-59.207000N 091-33.018000W
34.9867833,-91.5503000
(estimated)
Elevation: 208 ft. / 63 m (estimated)
Variation: 02E (1995)
From city: 2 miles W of DES ARC, AR
Time zone: UTC -5 (UTC -6 during Standard Time)
Zip code: 72040

Airport Operations

Airport use: Private use. Permission required prior to landing
Activation date: 10/1996
Control tower: no
ARTCC: MEMPHIS CENTER
FSS: JONESBORO FLIGHT SERVICE STATION
Attendance: MON-SAT 0800-1700
Segmented circle: no

Airport Communications

WX AWOS-2 at 4M3 (13 nm SW): 119.275 (870-552-1445)
WX AWOS-3PT at SRC (16 nm NW): 128.325 (501-268-4280)

Nearby radio navigation aids

VOR radial/distance  VOR name  Freq  Var
LITr054/36.2LITTLE ROCK VORTAC113.9005E

 
NDB name  Hdg/Dist  Freq  Var  ID
CERCY126/13.237502EDS -.. ...
TONEYVILLE084/23.229001ETYV - -.-- ...-

Airport Services

Runway Information

Runway 9/27

Dimensions: 2640 x 200 ft. / 805 x 61 m
Surface: turf
RUNWAY 9  RUNWAY 27
Traffic pattern: leftleft
Obstructions: 35 ft. plines, 1320 ft. from runway35 ft. pline, 15 ft. from runway

Airport Ownership and Management from official FAA records

Ownership: Privately-owned
Owner: STEVEN TAYLOR
12244 WILLIE B ROAD
DES ARC, AR 72040
Phone (501) 516-5874
Manager: STEVEN TAYLOR
12244 WILLIE B ROAD
DES ARC, AR 72040
Phone 501-516-5874

Airport Operational Statistics

Aircraft based on the field: 4
Single engine airplanes: 3
Multi engine airplanes: 1
    

Additional Remarks

FOR CD CTC LITTLE ROCK APCH 501-379-2908 OR LITTLE ROCK ATCT 501-379-2911.

Instrument Procedures

There are no published instrument procedures at 1AR2.

Some nearby airports with instrument procedures:

4M3 - Carlisle Municipal Airport (13 nm SW)
KSRC - Searcy Municipal Airport (16 nm NW)
M36 - Frank Federer Memorial Airport (19 nm E)
M60 - Woodruff County Airport (22 nm NE)
KSGT - Stuttgart Municipal Airport / Carl Humphrey Field (23 nm S)
 
Loc | Ops | Rwys | IFR | FBO | Links
Com | Nav | Svcs | Stats | Notes
Area around 1AR2 (Taylor Airstrip)
 
Road maps at: MapQuest Bing Google
 
Aerial photo
No photo
 
Sectional chart

 
Airport distance calculator
Flying to Taylor Airstrip? Find the distance to fly.

From to 1AR2

Sunrise and sunset
Times for 24-Oct-2020
 Local
(UTC-5)
 Zulu
(UTC)
Morning civil twilight06:5611:56
Sunrise07:2212:22
Sunset18:1923:19
Evening civil twilight18:4523:45

Current date and time
Zulu (UTC)  24-Oct-2020 12:38:39
Local (UTC-5)  24-Oct-2020 07:38:39
 
METAR
KSRC 
18nm NW 
241156Z AUTO 03012KT 10SM OVC018 08/05 A3018 RMK AO2 SLP219 70047 T00830050 10094 20083 50001
KSGT 
23nm S 
241156Z AUTO 01017KT 10SM OVC014 09/07 A3015 RMK AO2 SLP212 70098 T00890067 10106 20089 53000
KLRF 
30nm W 
241156Z 02007KT 10SM OVC017 08/05 A3016 RMK AO2A SLP216 70022 T00840046 10098 20084 55002
KORK 
36nm W 
241215Z AUTO 03008KT 6SM BR OVC016 06/05 A3015 RMK AO2
TAF
KLRF 
30nm W 
232344Z 2323/2505 34010G15KT 9999 OVC030 QNH3005INS BECMG 2407/2408 03010G20KT 9999 BKN010 OVC020 QNH3005INS BECMG 2416/2417 07006KT 9999 BKN015 OVC025 QNH3003INS BECMG 2501/2502 06006KT 9999 BKN009 OVC015 QNH3003INS TX16/2323Z TN10/2412Z
KLIT 
37nm SW 
241120Z 2412/2512 02010G17KT P6SM OVC020 FM242100 05007KT P6SM OVC015
NOTAMs
Click for the latest NOTAMs
NOTAMs are issued by the DoD/FAA and will open in a separate window not controlled by AirNav.

 

 
 

Would you like to see your business listed on this page?

 If your business provides an interesting product or service to pilots, flight crews, aircraft, or users of the Taylor Airstrip, you should consider listing it here.  To start the listing process, click on the button below
 
Add a business
 

Other Pages about Taylor Airstrip

Update a link
 
Copyright © AirNav, LLC. All rights reserved. Privacy Policy  Contact